sensor_id;sensor_type;location;lat;lon;timestamp;P1;durP1;ratioP1;P2;durP2;ratioP2
5191;SDS011;2615;44.524;11.284;2023-11-22T00:02:08;12.23;;;8.53;;
5191;SDS011;2615;44.524;11.284;2023-11-22T00:04:36;10.17;;;8.67;;
5191;SDS011;2615;44.524;11.284;2023-11-22T00:07:04;13.83;;;8.07;;
5191;SDS011;2615;44.524;11.284;2023-11-22T00:09:33;11.43;;;8.27;;
5191;SDS011;2615;44.524;11.284;2023-11-22T00:12:01;10.67;;;7.03;;
5191;SDS011;2615;44.524;11.284;2023-11-22T00:14:31;16.73;;;7.70;;
5191;SDS011;2615;44.524;11.284;2023-11-22T00:17:01;12.60;;;8.00;;
5191;SDS011;2615;44.524;11.284;2023-11-22T00:19:30;14.57;;;7.77;;
5191;SDS011;2615;44.524;11.284;2023-11-22T00:21:59;9.60;;;8.10;;
5191;SDS011;2615;44.524;11.284;2023-11-22T00:24:29;9.20;;;8.20;;
5191;SDS011;2615;44.524;11.284;2023-11-22T00:26:57;11.30;;;8.53;;
5191;SDS011;2615;44.524;11.284;2023-11-22T00:29:25;13.00;;;8.07;;
5191;SDS011;2615;44.524;11.284;2023-11-22T00:31:55;12.90;;;8.40;;
5191;SDS011;2615;44.524;11.284;2023-11-22T00:34:23;11.43;;;9.50;;
5191;SDS011;2615;44.524;11.284;2023-11-22T00:36:51;12.70;;;9.27;;
5191;SDS011;2615;44.524;11.284;2023-11-22T00:39:20;14.00;;;8.27;;
5191;SDS011;2615;44.524;11.284;2023-11-22T00:41:48;10.63;;;8.10;;
5191;SDS011;2615;44.524;11.284;2023-11-22T00:44:16;13.93;;;9.27;;
5191;SDS011;2615;44.524;11.284;2023-11-22T00:46:45;14.20;;;9.20;;
5191;SDS011;2615;44.524;11.284;2023-11-22T00:49:14;12.17;;;9.23;;
5191;SDS011;2615;44.524;11.284;2023-11-22T00:51:43;14.43;;;9.83;;
5191;SDS011;2615;44.524;11.284;2023-11-22T00:54:11;14.20;;;8.50;;
5191;SDS011;2615;44.524;11.284;2023-11-22T00:56:39;13.17;;;9.10;;
5191;SDS011;2615;44.524;11.284;2023-11-22T00:59:07;16.23;;;10.87;;
5191;SDS011;2615;44.524;11.284;2023-11-22T01:01:36;13.90;;;9.37;;
5191;SDS011;2615;44.524;11.284;2023-11-22T01:04:04;14.67;;;10.53;;
5191;SDS011;2615;44.524;11.284;2023-11-22T01:06:34;20.30;;;10.50;;
5191;SDS011;2615;44.524;11.284;2023-11-22T01:09:03;16.03;;;9.40;;
5191;SDS011;2615;44.524;11.284;2023-11-22T01:11:35;17.27;;;10.50;;
5191;SDS011;2615;44.524;11.284;2023-11-22T01:14:04;18.23;;;10.03;;
5191;SDS011;2615;44.524;11.284;2023-11-22T01:16:32;14.27;;;9.17;;
5191;SDS011;2615;44.524;11.284;2023-11-22T01:19:03;13.87;;;10.00;;
5191;SDS011;2615;44.524;11.284;2023-11-22T01:21:31;14.17;;;10.33;;
5191;SDS011;2615;44.524;11.284;2023-11-22T01:24:00;15.73;;;10.70;;
5191;SDS011;2615;44.524;11.284;2023-11-22T01:26:29;17.80;;;9.70;;
5191;SDS011;2615;44.524;11.284;2023-11-22T01:28:57;13.33;;;9.87;;
5191;SDS011;2615;44.524;11.284;2023-11-22T01:31:26;13.47;;;9.53;;
5191;SDS011;2615;44.524;11.284;2023-11-22T01:33:55;16.07;;;11.00;;
5191;SDS011;2615;44.524;11.284;2023-11-22T01:36:23;14.83;;;10.60;;
5191;SDS011;2615;44.524;11.284;2023-11-22T01:38:52;16.20;;;10.40;;
5191;SDS011;2615;44.524;11.284;2023-11-22T01:41:21;12.90;;;9.80;;
5191;SDS011;2615;44.524;11.284;2023-11-22T01:43:50;18.33;;;10.33;;
5191;SDS011;2615;44.524;11.284;2023-11-22T01:46:21;14.70;;;10.53;;
5191;SDS011;2615;44.524;11.284;2023-11-22T01:48:52;14.67;;;11.00;;
5191;SDS011;2615;44.524;11.284;2023-11-22T01:51:22;17.00;;;12.00;;
5191;SDS011;2615;44.524;11.284;2023-11-22T01:53:51;17.93;;;12.40;;
5191;SDS011;2615;44.524;11.284;2023-11-22T01:56:24;14.37;;;10.80;;
5191;SDS011;2615;44.524;11.284;2023-11-22T01:58:54;15.30;;;11.87;;
5191;SDS011;2615;44.524;11.284;2023-11-22T02:01:24;15.03;;;10.53;;
5191;SDS011;2615;44.524;11.284;2023-11-22T02:03:53;16.20;;;10.57;;
5191;SDS011;2615;44.524;11.284;2023-11-22T02:06:21;14.63;;;10.80;;
5191;SDS011;2615;44.524;11.284;2023-11-22T02:08:50;20.70;;;11.43;;
5191;SDS011;2615;44.524;11.284;2023-11-22T02:11:18;16.77;;;11.10;;
5191;SDS011;2615;44.524;11.284;2023-11-22T02:13:50;16.00;;;10.63;;
5191;SDS011;2615;44.524;11.284;2023-11-22T02:16:18;17.27;;;10.97;;
5191;SDS011;2615;44.524;11.284;2023-11-22T02:18:47;17.10;;;11.27;;
5191;SDS011;2615;44.524;11.284;2023-11-22T02:21:16;18.47;;;12.17;;
5191;SDS011;2615;44.524;11.284;2023-11-22T02:23:46;13.13;;;10.67;;
5191;SDS011;2615;44.524;11.284;2023-11-22T02:26:14;16.60;;;12.47;;
5191;SDS011;2615;44.524;11.284;2023-11-22T02:28:44;16.57;;;11.73;;
5191;SDS011;2615;44.524;11.284;2023-11-22T02:31:12;16.97;;;11.40;;
5191;SDS011;2615;44.524;11.284;2023-11-22T02:33:40;15.13;;;11.53;;
5191;SDS011;2615;44.524;11.284;2023-11-22T02:36:09;18.23;;;11.73;;
5191;SDS011;2615;44.524;11.284;2023-11-22T02:38:39;16.00;;;10.57;;
5191;SDS011;2615;44.524;11.284;2023-11-22T02:41:09;16.20;;;12.47;;
5191;SDS011;2615;44.524;11.284;2023-11-22T02:43:38;19.53;;;11.00;;
5191;SDS011;2615;44.524;11.284;2023-11-22T02:46:06;16.37;;;11.77;;
5191;SDS011;2615;44.524;11.284;2023-11-22T02:48:34;17.97;;;13.10;;
5191;SDS011;2615;44.524;11.284;2023-11-22T02:51:03;20.77;;;12.40;;
5191;SDS011;2615;44.524;11.284;2023-11-22T02:53:32;17.73;;;13.47;;
5191;SDS011;2615;44.524;11.284;2023-11-22T02:56:01;21.50;;;13.63;;
5191;SDS011;2615;44.524;11.284;2023-11-22T02:58:30;16.80;;;11.10;;
5191;SDS011;2615;44.524;11.284;2023-11-22T03:00:59;16.87;;;11.23;;
5191;SDS011;2615;44.524;11.284;2023-11-22T03:03:27;21.60;;;15.13;;
5191;SDS011;2615;44.524;11.284;2023-11-22T03:05:55;20.10;;;12.20;;
5191;SDS011;2615;44.524;11.284;2023-11-22T03:08:23;18.40;;;12.20;;
5191;SDS011;2615;44.524;11.284;2023-11-22T03:10:52;16.80;;;12.30;;
5191;SDS011;2615;44.524;11.284;2023-11-22T03:13:20;19.07;;;13.07;;
5191;SDS011;2615;44.524;11.284;2023-11-22T03:15:50;14.40;;;11.80;;
5191;SDS011;2615;44.524;11.284;2023-11-22T03:18:18;20.93;;;13.67;;
5191;SDS011;2615;44.524;11.284;2023-11-22T03:20:48;15.60;;;13.03;;
5191;SDS011;2615;44.524;11.284;2023-11-22T03:23:20;18.90;;;13.07;;
5191;SDS011;2615;44.524;11.284;2023-11-22T03:25:48;16.50;;;11.47;;
5191;SDS011;2615;44.524;11.284;2023-11-22T03:28:18;18.53;;;13.60;;
5191;SDS011;2615;44.524;11.284;2023-11-22T03:30:46;19.17;;;14.17;;
5191;SDS011;2615;44.524;11.284;2023-11-22T03:33:15;21.77;;;13.50;;
5191;SDS011;2615;44.524;11.284;2023-11-22T03:35:43;23.57;;;14.37;;
5191;SDS011;2615;44.524;11.284;2023-11-22T03:38:12;24.27;;;15.07;;
5191;SDS011;2615;44.524;11.284;2023-11-22T03:40:40;23.63;;;15.97;;
5191;SDS011;2615;44.524;11.284;2023-11-22T03:43:08;25.13;;;15.40;;
5191;SDS011;2615;44.524;11.284;2023-11-22T03:45:36;28.47;;;16.77;;
5191;SDS011;2615;44.524;11.284;2023-11-22T03:48:05;26.03;;;19.00;;
5191;SDS011;2615;44.524;11.284;2023-11-22T03:50:34;22.47;;;15.00;;
5191;SDS011;2615;44.524;11.284;2023-11-22T03:53:02;25.10;;;16.70;;
5191;SDS011;2615;44.524;11.284;2023-11-22T03:55:31;22.33;;;16.37;;
5191;SDS011;2615;44.524;11.284;2023-11-22T03:57:59;21.97;;;16.03;;
5191;SDS011;2615;44.524;11.284;2023-11-22T04:00:27;23.93;;;16.73;;
5191;SDS011;2615;44.524;11.284;2023-11-22T04:02:55;22.97;;;15.93;;
5191;SDS011;2615;44.524;11.284;2023-11-22T04:05:26;24.57;;;18.13;;
5191;SDS011;2615;44.524;11.284;2023-11-22T04:07:56;20.50;;;15.70;;
5191;SDS011;2615;44.524;11.284;2023-11-22T04:10:25;25.97;;;17.53;;
5191;SDS011;2615;44.524;11.284;2023-11-22T04:12:53;22.47;;;16.10;;
5191;SDS011;2615;44.524;11.284;2023-11-22T04:15:21;28.27;;;17.83;;
5191;SDS011;2615;44.524;11.284;2023-11-22T04:17:50;26.10;;;17.30;;
5191;SDS011;2615;44.524;11.284;2023-11-22T04:20:21;29.97;;;17.90;;
5191;SDS011;2615;44.524;11.284;2023-11-22T04:22:49;28.93;;;18.70;;
5191;SDS011;2615;44.524;11.284;2023-11-22T04:25:18;23.30;;;17.73;;
5191;SDS011;2615;44.524;11.284;2023-11-22T04:27:47;25.90;;;17.27;;
5191;SDS011;2615;44.524;11.284;2023-11-22T04:30:15;22.73;;;16.73;;
5191;SDS011;2615;44.524;11.284;2023-11-22T04:32:43;23.00;;;18.30;;
5191;SDS011;2615;44.524;11.284;2023-11-22T04:35:13;32.20;;;18.33;;
5191;SDS011;2615;44.524;11.284;2023-11-22T04:37:41;27.43;;;17.60;;
5191;SDS011;2615;44.524;11.284;2023-11-22T04:40:10;31.30;;;19.53;;
5191;SDS011;2615;44.524;11.284;2023-11-22T04:42:42;26.40;;;20.53;;
5191;SDS011;2615;44.524;11.284;2023-11-22T04:45:11;30.50;;;20.37;;
5191;SDS011;2615;44.524;11.284;2023-11-22T04:47:39;27.13;;;19.87;;
5191;SDS011;2615;44.524;11.284;2023-11-22T04:50:07;38.20;;;21.50;;
5191;SDS011;2615;44.524;11.284;2023-11-22T04:52:37;35.57;;;22.07;;
5191;SDS011;2615;44.524;11.284;2023-11-22T04:55:06;31.13;;;20.70;;
5191;SDS011;2615;44.524;11.284;2023-11-22T04:57:34;33.03;;;21.93;;
5191;SDS011;2615;44.524;11.284;2023-11-22T05:00:04;30.27;;;19.90;;
5191;SDS011;2615;44.524;11.284;2023-11-22T05:02:34;32.63;;;22.00;;
5191;SDS011;2615;44.524;11.284;2023-11-22T05:05:02;33.37;;;20.73;;
5191;SDS011;2615;44.524;11.284;2023-11-22T05:07:31;35.47;;;21.50;;
5191;SDS011;2615;44.524;11.284;2023-11-22T05:09:59;32.03;;;21.77;;
5191;SDS011;2615;44.524;11.284;2023-11-22T05:12:28;33.40;;;22.93;;
5191;SDS011;2615;44.524;11.284;2023-11-22T05:14:57;28.80;;;22.40;;
5191;SDS011;2615;44.524;11.284;2023-11-22T05:17:26;33.53;;;22.67;;
5191;SDS011;2615;44.524;11.284;2023-11-22T05:19:55;33.80;;;21.37;;
5191;SDS011;2615;44.524;11.284;2023-11-22T05:22:23;29.07;;;22.03;;
5191;SDS011;2615;44.524;11.284;2023-11-22T05:24:51;36.87;;;23.03;;
5191;SDS011;2615;44.524;11.284;2023-11-22T05:27:19;37.30;;;22.43;;
5191;SDS011;2615;44.524;11.284;2023-11-22T05:29:47;33.00;;;21.20;;
5191;SDS011;2615;44.524;11.284;2023-11-22T05:32:21;42.50;;;27.10;;
5191;SDS011;2615;44.524;11.284;2023-11-22T05:34:50;41.10;;;22.60;;
5191;SDS011;2615;44.524;11.284;2023-11-22T05:37:18;37.00;;;23.90;;
5191;SDS011;2615;44.524;11.284;2023-11-22T05:39:49;39.10;;;24.10;;
5191;SDS011;2615;44.524;11.284;2023-11-22T05:42:17;47.77;;;26.40;;
5191;SDS011;2615;44.524;11.284;2023-11-22T05:44:45;35.43;;;24.77;;
5191;SDS011;2615;44.524;11.284;2023-11-22T05:47:13;35.17;;;24.10;;
5191;SDS011;2615;44.524;11.284;2023-11-22T05:49:45;41.20;;;24.90;;
5191;SDS011;2615;44.524;11.284;2023-11-22T05:52:14;40.87;;;25.10;;
5191;SDS011;2615;44.524;11.284;2023-11-22T05:54:42;39.13;;;22.40;;
5191;SDS011;2615;44.524;11.284;2023-11-22T05:57:10;41.43;;;24.47;;
5191;SDS011;2615;44.524;11.284;2023-11-22T05:59:38;44.90;;;26.23;;
5191;SDS011;2615;44.524;11.284;2023-11-22T06:02:07;45.17;;;28.30;;
5191;SDS011;2615;44.524;11.284;2023-11-22T06:04:35;39.33;;;27.17;;
5191;SDS011;2615;44.524;11.284;2023-11-22T06:07:07;43.57;;;29.17;;
5191;SDS011;2615;44.524;11.284;2023-11-22T06:09:36;45.90;;;31.10;;
5191;SDS011;2615;44.524;11.284;2023-11-22T06:12:05;46.13;;;31.00;;
5191;SDS011;2615;44.524;11.284;2023-11-22T06:14:33;66.70;;;30.50;;
5191;SDS011;2615;44.524;11.284;2023-11-22T06:17:02;51.53;;;29.80;;
5191;SDS011;2615;44.524;11.284;2023-11-22T06:19:30;51.90;;;28.47;;
5191;SDS011;2615;44.524;11.284;2023-11-22T06:21:58;43.83;;;26.40;;
5191;SDS011;2615;44.524;11.284;2023-11-22T06:24:28;43.70;;;28.17;;
5191;SDS011;2615;44.524;11.284;2023-11-22T06:26:57;47.93;;;32.13;;
5191;SDS011;2615;44.524;11.284;2023-11-22T06:29:25;56.90;;;35.27;;
5191;SDS011;2615;44.524;11.284;2023-11-22T06:31:54;41.57;;;27.43;;
5191;SDS011;2615;44.524;11.284;2023-11-22T06:34:22;40.50;;;24.20;;
5191;SDS011;2615;44.524;11.284;2023-11-22T06:36:50;41.80;;;25.00;;
5191;SDS011;2615;44.524;11.284;2023-11-22T06:39:18;50.17;;;33.97;;
5191;SDS011;2615;44.524;11.284;2023-11-22T06:41:48;46.70;;;30.70;;
5191;SDS011;2615;44.524;11.284;2023-11-22T06:44:18;54.63;;;31.33;;
5191;SDS011;2615;44.524;11.284;2023-11-22T06:46:46;40.60;;;28.07;;
5191;SDS011;2615;44.524;11.284;2023-11-22T06:49:15;40.40;;;25.50;;
5191;SDS011;2615;44.524;11.284;2023-11-22T06:51:43;43.10;;;26.10;;
5191;SDS011;2615;44.524;11.284;2023-11-22T06:54:11;43.93;;;27.47;;
5191;SDS011;2615;44.524;11.284;2023-11-22T06:56:39;48.30;;;29.57;;
5191;SDS011;2615;44.524;11.284;2023-11-22T06:59:07;51.00;;;31.03;;
5191;SDS011;2615;44.524;11.284;2023-11-22T07:01:37;40.83;;;26.43;;
5191;SDS011;2615;44.524;11.284;2023-11-22T07:04:06;34.50;;;22.83;;
5191;SDS011;2615;44.524;11.284;2023-11-22T07:06:34;54.37;;;32.63;;
5191;SDS011;2615;44.524;11.284;2023-11-22T07:09:03;52.63;;;30.60;;
5191;SDS011;2615;44.524;11.284;2023-11-22T07:11:31;41.00;;;25.63;;
5191;SDS011;2615;44.524;11.284;2023-11-22T07:14:00;44.10;;;29.33;;
5191;SDS011;2615;44.524;11.284;2023-11-22T07:16:30;44.40;;;25.80;;
5191;SDS011;2615;44.524;11.284;2023-11-22T07:19:00;44.77;;;29.27;;
5191;SDS011;2615;44.524;11.284;2023-11-22T07:21:29;38.57;;;25.80;;
5191;SDS011;2615;44.524;11.284;2023-11-22T07:23:57;38.90;;;25.43;;
5191;SDS011;2615;44.524;11.284;2023-11-22T07:26:26;37.67;;;23.90;;
5191;SDS011;2615;44.524;11.284;2023-11-22T07:28:54;30.87;;;20.33;;
5191;SDS011;2615;44.524;11.284;2023-11-22T07:31:22;47.47;;;23.43;;
5191;SDS011;2615;44.524;11.284;2023-11-22T07:33:51;34.90;;;23.20;;
5191;SDS011;2615;44.524;11.284;2023-11-22T07:36:22;38.43;;;23.87;;
5191;SDS011;2615;44.524;11.284;2023-11-22T07:38:51;50.73;;;27.47;;
5191;SDS011;2615;44.524;11.284;2023-11-22T07:41:20;39.07;;;25.90;;
5191;SDS011;2615;44.524;11.284;2023-11-22T07:43:48;42.97;;;26.67;;
5191;SDS011;2615;44.524;11.284;2023-11-22T07:46:17;36.70;;;25.40;;
5191;SDS011;2615;44.524;11.284;2023-11-22T07:48:45;36.40;;;24.97;;
5191;SDS011;2615;44.524;11.284;2023-11-22T07:51:15;43.37;;;28.03;;
5191;SDS011;2615;44.524;11.284;2023-11-22T07:53:45;40.63;;;26.43;;
5191;SDS011;2615;44.524;11.284;2023-11-22T07:56:15;33.67;;;23.80;;
5191;SDS011;2615;44.524;11.284;2023-11-22T07:58:45;51.10;;;24.43;;
5191;SDS011;2615;44.524;11.284;2023-11-22T08:01:13;40.23;;;26.50;;
5191;SDS011;2615;44.524;11.284;2023-11-22T08:03:41;31.67;;;21.40;;
5191;SDS011;2615;44.524;11.284;2023-11-22T08:06:13;41.40;;;22.73;;
5191;SDS011;2615;44.524;11.284;2023-11-22T08:08:43;35.07;;;24.20;;
5191;SDS011;2615;44.524;11.284;2023-11-22T08:11:13;33.60;;;21.33;;
5191;SDS011;2615;44.524;11.284;2023-11-22T08:13:42;33.40;;;23.40;;
5191;SDS011;2615;44.524;11.284;2023-11-22T08:16:11;35.13;;;23.10;;
5191;SDS011;2615;44.524;11.284;2023-11-22T08:18:40;32.83;;;21.30;;
5191;SDS011;2615;44.524;11.284;2023-11-22T08:21:10;32.13;;;22.83;;
5191;SDS011;2615;44.524;11.284;2023-11-22T08:23:38;28.83;;;19.17;;
5191;SDS011;2615;44.524;11.284;2023-11-22T08:26:08;52.50;;;22.20;;
5191;SDS011;2615;44.524;11.284;2023-11-22T08:28:38;27.77;;;21.40;;
5191;SDS011;2615;44.524;11.284;2023-11-22T08:31:06;42.93;;;28.07;;
5191;SDS011;2615;44.524;11.284;2023-11-22T08:33:36;39.43;;;24.67;;
5191;SDS011;2615;44.524;11.284;2023-11-22T08:36:05;44.10;;;21.70;;
5191;SDS011;2615;44.524;11.284;2023-11-22T08:38:34;33.10;;;22.60;;
5191;SDS011;2615;44.524;11.284;2023-11-22T08:41:02;33.97;;;22.17;;
5191;SDS011;2615;44.524;11.284;2023-11-22T08:43:33;31.17;;;22.20;;
5191;SDS011;2615;44.524;11.284;2023-11-22T08:46:01;30.87;;;20.10;;
5191;SDS011;2615;44.524;11.284;2023-11-22T08:48:40;31.00;;;19.27;;
5191;SDS011;2615;44.524;11.284;2023-11-22T08:51:09;30.67;;;20.43;;
5191;SDS011;2615;44.524;11.284;2023-11-22T08:53:38;30.33;;;19.80;;
5191;SDS011;2615;44.524;11.284;2023-11-22T08:56:07;28.80;;;19.60;;
5191;SDS011;2615;44.524;11.284;2023-11-22T08:58:37;30.27;;;19.00;;
5191;SDS011;2615;44.524;11.284;2023-11-22T09:01:07;42.83;;;22.40;;
5191;SDS011;2615;44.524;11.284;2023-11-22T09:03:35;29.63;;;19.50;;
5191;SDS011;2615;44.524;11.284;2023-11-22T09:06:04;26.43;;;19.90;;
5191;SDS011;2615;44.524;11.284;2023-11-22T09:08:34;27.23;;;19.10;;
5191;SDS011;2615;44.524;11.284;2023-11-22T09:11:03;31.97;;;19.23;;
5191;SDS011;2615;44.524;11.284;2023-11-22T09:13:33;71.17;;;38.30;;
5191;SDS011;2615;44.524;11.284;2023-11-22T09:16:03;458.87;;;204.30;;
5191;SDS011;2615;44.524;11.284;2023-11-22T09:18:32;585.80;;;289.03;;
5191;SDS011;2615;44.524;11.284;2023-11-22T09:21:01;391.37;;;145.27;;
5191;SDS011;2615;44.524;11.284;2023-11-22T09:23:29;39.70;;;26.83;;
5191;SDS011;2615;44.524;11.284;2023-11-22T09:25:57;162.03;;;64.33;;
5191;SDS011;2615;44.524;11.284;2023-11-22T09:28:26;47.57;;;27.37;;
5191;SDS011;2615;44.524;11.284;2023-11-22T09:30:55;38.93;;;25.10;;
5191;SDS011;2615;44.524;11.284;2023-11-22T09:33:29;37.67;;;26.67;;
5191;SDS011;2615;44.524;11.284;2023-11-22T09:35:57;36.33;;;23.67;;
5191;SDS011;2615;44.524;11.284;2023-11-22T09:38:26;28.63;;;19.60;;
5191;SDS011;2615;44.524;11.284;2023-11-22T09:40:54;35.23;;;28.90;;
5191;SDS011;2615;44.524;11.284;2023-11-22T09:43:23;32.70;;;20.57;;
5191;SDS011;2615;44.524;11.284;2023-11-22T09:45:52;35.67;;;21.40;;
5191;SDS011;2615;44.524;11.284;2023-11-22T09:48:24;31.30;;;19.33;;
5191;SDS011;2615;44.524;11.284;2023-11-22T09:51:02;30.23;;;20.07;;
5191;SDS011;2615;44.524;11.284;2023-11-22T09:53:32;38.70;;;23.10;;
5191;SDS011;2615;44.524;11.284;2023-11-22T09:56:02;30.93;;;21.27;;
5191;SDS011;2615;44.524;11.284;2023-11-22T09:58:33;35.10;;;20.83;;
5191;SDS011;2615;44.524;11.284;2023-11-22T10:01:03;30.93;;;22.40;;
5191;SDS011;2615;44.524;11.284;2023-11-22T10:03:31;31.50;;;22.57;;
5191;SDS011;2615;44.524;11.284;2023-11-22T10:06:01;33.57;;;22.67;;
5191;SDS011;2615;44.524;11.284;2023-11-22T10:08:31;29.10;;;20.30;;
5191;SDS011;2615;44.524;11.284;2023-11-22T10:10:59;37.57;;;22.43;;
5191;SDS011;2615;44.524;11.284;2023-11-22T10:13:28;35.27;;;23.40;;
5191;SDS011;2615;44.524;11.284;2023-11-22T10:15:56;35.33;;;22.70;;
5191;SDS011;2615;44.524;11.284;2023-11-22T10:18:39;32.87;;;22.57;;
5191;SDS011;2615;44.524;11.284;2023-11-22T10:21:19;31.87;;;22.97;;
5191;SDS011;2615;44.524;11.284;2023-11-22T10:23:49;32.37;;;21.47;;
5191;SDS011;2615;44.524;11.284;2023-11-22T10:26:19;34.50;;;21.47;;
5191;SDS011;2615;44.524;11.284;2023-11-22T10:28:50;29.77;;;21.37;;
5191;SDS011;2615;44.524;11.284;2023-11-22T10:31:19;29.40;;;19.13;;
5191;SDS011;2615;44.524;11.284;2023-11-22T10:33:48;32.43;;;19.37;;
5191;SDS011;2615;44.524;11.284;2023-11-22T10:36:16;32.13;;;23.00;;
5191;SDS011;2615;44.524;11.284;2023-11-22T10:38:47;40.03;;;25.00;;
5191;SDS011;2615;44.524;11.284;2023-11-22T10:41:17;28.80;;;22.57;;
5191;SDS011;2615;44.524;11.284;2023-11-22T10:43:50;34.60;;;21.20;;
5191;SDS011;2615;44.524;11.284;2023-11-22T10:46:20;28.57;;;20.30;;
5191;SDS011;2615;44.524;11.284;2023-11-22T10:48:54;24.57;;;17.40;;
5191;SDS011;2615;44.524;11.284;2023-11-22T10:51:23;32.23;;;17.90;;
5191;SDS011;2615;44.524;11.284;2023-11-22T10:53:59;36.70;;;20.10;;
5191;SDS011;2615;44.524;11.284;2023-11-22T10:56:31;22.83;;;17.70;;
5191;SDS011;2615;44.524;11.284;2023-11-22T10:59:09;24.30;;;16.40;;
5191;SDS011;2615;44.524;11.284;2023-11-22T11:01:39;24.60;;;17.63;;
5191;SDS011;2615;44.524;11.284;2023-11-22T11:04:16;32.60;;;17.63;;
5191;SDS011;2615;44.524;11.284;2023-11-22T11:06:54;30.57;;;18.00;;
5191;SDS011;2615;44.524;11.284;2023-11-22T11:09:24;29.37;;;16.60;;
5191;SDS011;2615;44.524;11.284;2023-11-22T11:11:56;28.00;;;17.40;;
5191;SDS011;2615;44.524;11.284;2023-11-22T11:14:25;23.23;;;14.83;;
5191;SDS011;2615;44.524;11.284;2023-11-22T11:16:54;27.53;;;15.90;;
5191;SDS011;2615;44.524;11.284;2023-11-22T11:19:25;26.10;;;17.30;;
5191;SDS011;2615;44.524;11.284;2023-11-22T11:21:54;31.90;;;20.10;;
5191;SDS011;2615;44.524;11.284;2023-11-22T11:24:25;25.93;;;18.53;;
5191;SDS011;2615;44.524;11.284;2023-11-22T11:26:53;33.10;;;20.77;;
5191;SDS011;2615;44.524;11.284;2023-11-22T11:29:30;29.37;;;16.60;;
5191;SDS011;2615;44.524;11.284;2023-11-22T11:31:59;21.70;;;15.40;;
5191;SDS011;2615;44.524;11.284;2023-11-22T11:34:29;19.47;;;13.63;;
5191;SDS011;2615;44.524;11.284;2023-11-22T11:36:59;18.43;;;12.53;;
5191;SDS011;2615;44.524;11.284;2023-11-22T11:39:29;22.33;;;14.70;;
5191;SDS011;2615;44.524;11.284;2023-11-22T11:42:07;17.37;;;10.90;;
5191;SDS011;2615;44.524;11.284;2023-11-22T11:44:50;14.57;;;10.47;;
5191;SDS011;2615;44.524;11.284;2023-11-22T11:47:29;14.30;;;10.60;;
5191;SDS011;2615;44.524;11.284;2023-11-22T11:49:58;13.53;;;10.10;;
5191;SDS011;2615;44.524;11.284;2023-11-22T11:52:26;15.90;;;9.37;;
5191;SDS011;2615;44.524;11.284;2023-11-22T11:54:58;14.30;;;8.93;;
5191;SDS011;2615;44.524;11.284;2023-11-22T11:57:30;10.83;;;7.97;;
5191;SDS011;2615;44.524;11.284;2023-11-22T11:59:59;12.30;;;9.07;;
5191;SDS011;2615;44.524;11.284;2023-11-22T12:02:29;16.77;;;9.53;;
5191;SDS011;2615;44.524;11.284;2023-11-22T12:04:57;11.77;;;8.80;;
5191;SDS011;2615;44.524;11.284;2023-11-22T12:07:25;13.20;;;8.87;;
5191;SDS011;2615;44.524;11.284;2023-11-22T12:09:53;13.00;;;9.03;;
5191;SDS011;2615;44.524;11.284;2023-11-22T12:12:25;13.70;;;9.27;;
5191;SDS011;2615;44.524;11.284;2023-11-22T12:14:55;14.77;;;8.80;;
5191;SDS011;2615;44.524;11.284;2023-11-22T12:17:23;12.00;;;7.93;;
5191;SDS011;2615;44.524;11.284;2023-11-22T12:19:53;12.37;;;8.50;;
5191;SDS011;2615;44.524;11.284;2023-11-22T12:22:38;13.73;;;7.53;;
5191;SDS011;2615;44.524;11.284;2023-11-22T12:25:07;14.03;;;10.60;;
5191;SDS011;2615;44.524;11.284;2023-11-22T12:27:39;13.30;;;8.83;;
5191;SDS011;2615;44.524;11.284;2023-11-22T12:30:08;16.47;;;9.07;;
5191;SDS011;2615;44.524;11.284;2023-11-22T12:32:38;11.97;;;8.70;;
5191;SDS011;2615;44.524;11.284;2023-11-22T12:35:09;17.40;;;10.00;;
5191;SDS011;2615;44.524;11.284;2023-11-22T12:37:38;16.57;;;8.57;;
5191;SDS011;2615;44.524;11.284;2023-11-22T12:40:07;10.73;;;7.53;;
5191;SDS011;2615;44.524;11.284;2023-11-22T12:42:49;13.43;;;9.57;;
5191;SDS011;2615;44.524;11.284;2023-11-22T12:45:20;19.30;;;8.33;;
5191;SDS011;2615;44.524;11.284;2023-11-22T12:47:50;13.93;;;8.40;;
5191;SDS011;2615;44.524;11.284;2023-11-22T12:50:34;9.60;;;7.03;;
5191;SDS011;2615;44.524;11.284;2023-11-22T12:53:09;16.67;;;7.80;;
5191;SDS011;2615;44.524;11.284;2023-11-22T12:55:41;11.10;;;7.80;;
5191;SDS011;2615;44.524;11.284;2023-11-22T12:58:11;12.73;;;8.13;;
5191;SDS011;2615;44.524;11.284;2023-11-22T13:00:40;11.17;;;7.13;;
5191;SDS011;2615;44.524;11.284;2023-11-22T13:03:09;8.20;;;6.73;;
5191;SDS011;2615;44.524;11.284;2023-11-22T13:05:38;9.90;;;7.47;;
5191;SDS011;2615;44.524;11.284;2023-11-22T13:08:06;10.50;;;7.63;;
5191;SDS011;2615;44.524;11.284;2023-11-22T13:10:37;8.67;;;5.80;;
5191;SDS011;2615;44.524;11.284;2023-11-22T13:13:05;10.37;;;7.70;;
5191;SDS011;2615;44.524;11.284;2023-11-22T13:15:36;9.63;;;6.20;;
5191;SDS011;2615;44.524;11.284;2023-11-22T13:18:06;9.40;;;6.70;;
5191;SDS011;2615;44.524;11.284;2023-11-22T13:20:35;11.30;;;6.27;;
5191;SDS011;2615;44.524;11.284;2023-11-22T13:23:05;9.30;;;6.67;;
5191;SDS011;2615;44.524;11.284;2023-11-22T13:25:33;16.20;;;8.07;;
5191;SDS011;2615;44.524;11.284;2023-11-22T13:28:02;5.80;;;4.30;;
5191;SDS011;2615;44.524;11.284;2023-11-22T13:30:31;10.03;;;4.97;;
5191;SDS011;2615;44.524;11.284;2023-11-22T13:33:01;14.13;;;5.03;;
5191;SDS011;2615;44.524;11.284;2023-11-22T13:35:30;7.03;;;2.50;;
5191;SDS011;2615;44.524;11.284;2023-11-22T13:37:58;5.27;;;1.93;;
5191;SDS011;2615;44.524;11.284;2023-11-22T13:40:28;4.77;;;1.80;;
5191;SDS011;2615;44.524;11.284;2023-11-22T13:42:57;2.70;;;1.50;;
5191;SDS011;2615;44.524;11.284;2023-11-22T13:45:26;7.27;;;3.07;;
5191;SDS011;2615;44.524;11.284;2023-11-22T13:47:55;5.53;;;2.03;;
5191;SDS011;2615;44.524;11.284;2023-11-22T13:50:31;5.20;;;1.60;;
5191;SDS011;2615;44.524;11.284;2023-11-22T13:53:01;5.87;;;1.50;;
5191;SDS011;2615;44.524;11.284;2023-11-22T13:55:30;5.47;;;1.97;;
5191;SDS011;2615;44.524;11.284;2023-11-22T13:57:58;2.83;;;1.33;;
5191;SDS011;2615;44.524;11.284;2023-11-22T14:00:28;3.80;;;1.30;;
5191;SDS011;2615;44.524;11.284;2023-11-22T14:03:01;4.97;;;1.50;;
5191;SDS011;2615;44.524;11.284;2023-11-22T14:05:35;2.40;;;1.33;;
5191;SDS011;2615;44.524;11.284;2023-11-22T14:08:05;4.70;;;2.00;;
5191;SDS011;2615;44.524;11.284;2023-11-22T14:10:34;7.30;;;1.50;;
5191;SDS011;2615;44.524;11.284;2023-11-22T14:13:02;6.00;;;2.00;;
5191;SDS011;2615;44.524;11.284;2023-11-22T14:15:31;10.20;;;4.30;;
5191;SDS011;2615;44.524;11.284;2023-11-22T14:17:59;6.33;;;1.40;;
5191;SDS011;2615;44.524;11.284;2023-11-22T14:20:28;5.03;;;1.30;;
5191;SDS011;2615;44.524;11.284;2023-11-22T14:22:58;5.47;;;1.40;;
5191;SDS011;2615;44.524;11.284;2023-11-22T14:25:26;4.20;;;1.60;;
5191;SDS011;2615;44.524;11.284;2023-11-22T14:27:55;6.97;;;2.20;;
5191;SDS011;2615;44.524;11.284;2023-11-22T14:30:25;18.40;;;3.63;;
5191;SDS011;2615;44.524;11.284;2023-11-22T14:32:55;5.43;;;2.00;;
5191;SDS011;2615;44.524;11.284;2023-11-22T14:35:25;5.67;;;1.50;;
5191;SDS011;2615;44.524;11.284;2023-11-22T14:37:54;15.17;;;2.20;;
5191;SDS011;2615;44.524;11.284;2023-11-22T14:40:26;8.80;;;3.67;;
5191;SDS011;2615;44.524;11.284;2023-11-22T14:42:56;4.83;;;1.63;;
5191;SDS011;2615;44.524;11.284;2023-11-22T14:45:25;6.53;;;1.80;;
5191;SDS011;2615;44.524;11.284;2023-11-22T14:47:53;6.10;;;2.17;;
5191;SDS011;2615;44.524;11.284;2023-11-22T14:50:23;6.40;;;2.17;;
5191;SDS011;2615;44.524;11.284;2023-11-22T14:52:54;6.37;;;1.70;;